createdAt,value
2022-09-21T00:02:08.047Z,102179.56
2022-09-21T00:05:10.848Z,102172.69
2022-09-21T00:08:15.784Z,102177.16
2022-09-21T00:11:21.134Z,102176.91
2022-09-21T00:14:26.971Z,102180.66
2022-09-21T00:17:29.694Z,102186.06
2022-09-21T00:20:32.249Z,102189.56
2022-09-21T00:23:37.319Z,102189.63
2022-09-21T00:26:39.856Z,102193.97
2022-09-21T00:29:42.522Z,102188.94
2022-09-21T00:32:46.385Z,102194.97
2022-09-21T00:35:49.137Z,102190.59
2022-09-21T00:38:54.581Z,102187.22
2022-09-21T00:41:57.373Z,102188.97
2022-09-21T00:45:00.317Z,102190.63
2022-09-21T00:48:04.084Z,102186.72
2022-09-21T00:51:09.083Z,102187.41
2022-09-21T00:54:16.596Z,102198.22
2022-09-21T00:57:22.315Z,102195.75
2022-09-21T01:00:24.969Z,102195.84
2022-09-21T01:03:29.186Z,102190.06
2022-09-21T01:06:35.395Z,102197.81
2022-09-21T01:09:40.741Z,102202.97
2022-09-21T01:12:57.064Z,102201.53
2022-09-21T01:16:08.204Z,102194.47
2022-09-21T01:19:26.628Z,102198.91
2022-09-21T01:22:47.426Z,102200.56
2022-09-21T01:26:08.447Z,102203.28
2022-09-21T01:29:17.878Z,102208.53
2022-09-21T01:32:25.182Z,102206.13
2022-09-21T01:35:32.224Z,102206.56
2022-09-21T01:38:39.757Z,102213.00
2022-09-21T01:41:45.273Z,102215.84
2022-09-21T01:44:50.542Z,102205.81
2022-09-21T01:47:55.585Z,102209.28
2022-09-21T01:50:59.638Z,102213.81
2022-09-21T01:54:08.018Z,102210.44
2022-09-21T01:57:17.594Z,102208.06
2022-09-21T02:00:21.762Z,102213.50
2022-09-21T02:03:30.776Z,102210.75
2022-09-21T02:06:33.314Z,102212.53
2022-09-21T02:09:37.443Z,102222.19
2022-09-21T02:12:40.357Z,102212.44
2022-09-21T02:15:56.278Z,102215.09
2022-09-21T02:19:10.780Z,102218.63
2022-09-21T02:22:19.475Z,102210.63
2022-09-21T02:25:30.755Z,102212.56
2022-09-21T02:28:44.311Z,102210.88
2022-09-21T02:31:54.622Z,102214.03
2022-09-21T02:35:03.216Z,102210.63
2022-09-21T02:38:12.981Z,102215.25
2022-09-21T02:41:20.954Z,102211.72
2022-09-21T02:44:33.046Z,102211.53
2022-09-21T02:47:42.916Z,102216.59
2022-09-21T02:50:48.412Z,102219.69
2022-09-21T02:53:54.747Z,102212.81
2022-09-21T02:56:59.646Z,102211.06
2022-09-21T03:00:02.997Z,102215.59
2022-09-21T03:03:18.168Z,102221.47
2022-09-21T03:06:20.786Z,102219.63
2022-09-21T03:09:24.356Z,102224.81
2022-09-21T03:12:27.333Z,102231.88
2022-09-21T03:15:29.967Z,102233.47
2022-09-21T03:18:34.894Z,102230.34
2022-09-21T03:21:41.147Z,102238.53
2022-09-21T03:24:46.323Z,102231.34
2022-09-21T03:27:48.795Z,102234.13
2022-09-21T03:30:52.654Z,102235.88
2022-09-21T03:33:56.689Z,102241.00
2022-09-21T03:36:59.479Z,102243.66
2022-09-21T03:40:02.484Z,102251.56
2022-09-21T03:43:05.253Z,102240.28
2022-09-21T03:46:07.824Z,102245.72
2022-09-21T03:49:11.683Z,102240.50
2022-09-21T03:52:14.149Z,102243.75
2022-09-21T03:55:17.074Z,102243.66
2022-09-21T03:58:19.995Z,102244.84
2022-09-21T04:01:22.497Z,102249.25
2022-09-21T04:04:26.353Z,102248.03
2022-09-21T04:07:32.274Z,102244.84
2022-09-21T04:10:34.748Z,102244.00
2022-09-21T04:13:37.239Z,102249.25
2022-09-21T04:16:39.733Z,102242.16
2022-09-21T04:19:44.978Z,102248.22
2022-09-21T04:22:47.673Z,102241.13
2022-09-21T04:25:51.226Z,102253.31
2022-09-21T04:28:55.168Z,102245.78
2022-09-21T04:31:58.101Z,102255.53
2022-09-21T04:35:01.962Z,102252.81
2022-09-21T04:38:04.566Z,102254.69
2022-09-21T04:41:07.180Z,102258.97
2022-09-21T04:44:09.669Z,102255.38
2022-09-21T04:47:12.131Z,102257.34
2022-09-21T04:50:16.397Z,102260.06
2022-09-21T04:53:19.037Z,102263.63
2022-09-21T04:56:21.729Z,102257.34
2022-09-21T04:59:24.530Z,102268.94
2022-09-21T05:02:27.007Z,102265.44
2022-09-21T05:05:31.878Z,102267.03
2022-09-21T05:08:54.335Z,102272.19
2022-09-21T05:11:56.825Z,102268.06
2022-09-21T05:14:59.538Z,102277.75
2022-09-21T05:18:02.007Z,102272.13
2022-09-21T05:21:07.359Z,102268.69
2022-09-21T05:24:10.478Z,102274.91
2022-09-21T05:27:13.386Z,102275.03
2022-09-21T05:30:16.723Z,102276.81
2022-09-21T05:33:21.618Z,102277.34
2022-09-21T05:36:39.264Z,102278.16
2022-09-21T05:39:42.893Z,102282.81
2022-09-21T05:42:46.153Z,102285.44
2022-09-21T05:45:55.675Z,102283.00
2022-09-21T05:49:03.531Z,102289.97
2022-09-21T05:52:18.134Z,102281.91
2022-09-21T05:55:30.674Z,102284.41
2022-09-21T05:58:40.609Z,102285.28
2022-09-21T06:01:57.151Z,102287.16
2022-09-21T06:05:02.364Z,102287.81
2022-09-21T06:08:06.192Z,102288.53
2022-09-21T06:11:08.668Z,102286.88
2022-09-21T06:14:11.157Z,102282.47
2022-09-21T06:17:13.656Z,102284.25
2022-09-21T06:20:16.397Z,102290.34
2022-09-21T06:23:20.241Z,102287.47
2022-09-21T06:26:22.724Z,102303.22
2022-09-21T06:29:25.259Z,102299.53
2022-09-21T06:32:27.739Z,102296.84
2022-09-21T06:35:30.972Z,102302.06
2022-09-21T06:38:35.528Z,102301.06
2022-09-21T06:41:38.304Z,102296.56
2022-09-21T06:44:40.823Z,102309.75
2022-09-21T06:47:47.893Z,102294.66
2022-09-21T06:50:50.473Z,102301.47
2022-09-21T06:53:57.501Z,102306.47
2022-09-21T06:57:00.307Z,102309.75
2022-09-21T07:00:03.095Z,102313.13
2022-09-21T07:03:05.668Z,102310.28
2022-09-21T07:06:09.270Z,102305.59
2022-09-21T07:12:36.008Z,102312.88
2022-09-21T07:15:39.259Z,102315.53
2022-09-21T07:18:44.078Z,102315.41
2022-09-21T07:21:47.447Z,102320.38
2022-09-21T07:24:51.291Z,102311.41
2022-09-21T07:27:53.789Z,102321.00
2022-09-21T07:30:56.746Z,102320.91
2022-09-21T07:33:59.413Z,102317.19
2022-09-21T07:37:01.896Z,102327.50
2022-09-21T07:40:06.582Z,102330.69
2022-09-21T07:43:09.135Z,102328.81
2022-09-21T07:46:14.437Z,102324.88
2022-09-21T07:49:16.943Z,102325.34
2022-09-21T07:52:19.426Z,102325.69
2022-09-21T07:55:23.286Z,102322.66
2022-09-21T07:58:43.241Z,102321.34
2022-09-21T08:01:45.752Z,102322.66
2022-09-21T08:04:48.236Z,102327.47
2022-09-21T08:07:51.032Z,102329.66
2022-09-21T08:10:55.698Z,102335.50
2022-09-21T08:14:00.870Z,102335.06
2022-09-21T08:17:03.893Z,102335.47
2022-09-21T08:20:07.125Z,102331.44
2022-09-21T08:23:09.800Z,102330.78
2022-09-21T08:26:19.304Z,102339.22
2022-09-21T08:29:21.951Z,102340.41
2022-09-21T08:32:49.292Z,102339.84
2022-09-21T08:35:53.037Z,102346.41
2022-09-21T08:38:56.811Z,102340.09
2022-09-21T08:42:14.763Z,102332.13
2022-09-21T08:45:20.761Z,102336.38
2022-09-21T08:48:30.009Z,102339.19
2022-09-21T08:51:38.187Z,102341.72
2022-09-21T08:54:48.546Z,102342.41
2022-09-21T08:57:52.374Z,102345.84
2022-09-21T09:01:07.587Z,102336.88
2022-09-21T09:04:36.750Z,102343.88
2022-09-21T09:08:00.836Z,102348.38
2022-09-21T09:11:16.269Z,102350.00
2022-09-21T09:14:37.751Z,102347.97
2022-09-21T09:17:49.668Z,102351.91
2022-09-21T09:20:58.083Z,102350.75
2022-09-21T09:24:05.416Z,102348.75
2022-09-21T09:27:15.275Z,102346.00
2022-09-21T09:30:21.614Z,102354.09
2022-09-21T09:33:28.920Z,102357.38
2022-09-21T09:36:57.413Z,102356.34
2022-09-21T09:39:58.923Z,102353.75
2022-09-21T09:43:08.513Z,102352.44
2022-09-21T09:46:21.044Z,102355.19
2022-09-21T09:49:34.752Z,102350.53
2022-09-21T09:52:37.779Z,102348.31
2022-09-21T09:55:43.660Z,102351.56
2022-09-21T09:58:51.545Z,102351.56
2022-09-21T10:02:03.568Z,102359.13
2022-09-21T10:05:07.387Z,102350.75
2022-09-21T10:08:28.769Z,102348.34
2022-09-21T10:11:38.050Z,102340.88
2022-09-21T10:14:40.559Z,102346.72
2022-09-21T10:17:46.825Z,102340.09
2022-09-21T10:20:57.511Z,102337.47
2022-09-21T10:24:02.205Z,102339.78
2022-09-21T10:27:10.260Z,102329.31
2022-09-21T10:30:34.137Z,102331.75
2022-09-21T10:33:51.036Z,102336.44
2022-09-21T10:36:56.011Z,102334.31
2022-09-21T10:39:58.475Z,102331.97
2022-09-21T10:43:01.491Z,102335.41
2022-09-21T10:46:04.845Z,102338.09
2022-09-21T10:49:17.353Z,102337.75
2022-09-21T10:52:22.475Z,102330.34
2022-09-21T10:55:26.026Z,102318.72
2022-09-21T10:58:29.440Z,102319.31
2022-09-21T11:01:32.417Z,102318.84
2022-09-21T11:04:44.629Z,102320.53
2022-09-21T11:07:53.109Z,102315.72
2022-09-21T11:11:12.669Z,102319.72
2022-09-21T11:14:27.061Z,102318.09
2022-09-21T11:17:37.514Z,102320.19
2022-09-21T11:20:48.626Z,102313.50
2022-09-21T11:24:00.530Z,102319.34
2022-09-21T11:27:09.172Z,102306.09
2022-09-21T11:30:14.086Z,102316.81
2022-09-21T11:33:31.877Z,102319.59
2022-09-21T11:36:47.494Z,102310.72
2022-09-21T11:40:03.154Z,102311.78
2022-09-21T11:43:17.063Z,102317.91
2022-09-21T11:46:27.156Z,102312.91
2022-09-21T11:49:48.623Z,102312.91
2022-09-21T11:53:07.089Z,102317.34
2022-09-21T11:56:29.543Z,102311.63
2022-09-21T11:59:51.517Z,102310.53
2022-09-21T12:03:23.135Z,102308.78
2022-09-21T12:06:39.679Z,102303.75
2022-09-21T12:09:58.785Z,102305.25
2022-09-21T12:13:06.463Z,102296.16
2022-09-21T12:16:15.550Z,102309.53
2022-09-21T12:19:29.769Z,102299.25
2022-09-21T12:22:36.366Z,102290.38
2022-09-21T12:25:45.806Z,102288.81
2022-09-21T12:28:52.838Z,102289.16
2022-09-21T12:32:03.259Z,102280.72
2022-09-21T12:35:13.139Z,102278.25
2022-09-21T12:38:19.275Z,102272.03
2022-09-21T12:41:31.339Z,102271.00
2022-09-21T12:44:51.959Z,102270.91
2022-09-21T12:48:00.302Z,102265.50
2022-09-21T12:51:11.750Z,102272.28
2022-09-21T12:54:27.510Z,102273.03
2022-09-21T12:58:04.524Z,102268.88
2022-09-21T13:01:17.601Z,102261.13
2022-09-21T13:04:41.605Z,102271.94
2022-09-21T13:08:09.129Z,102271.41
2022-09-21T13:11:12.089Z,102268.28
2022-09-21T13:14:18.149Z,102262.19
2022-09-21T13:17:24.726Z,102273.44
2022-09-21T13:20:27.988Z,102262.09
2022-09-21T13:23:39.847Z,102269.91
2022-09-21T13:26:44.656Z,102263.44
2022-09-21T13:30:29.977Z,102262.94
2022-09-21T13:33:39.634Z,102254.75
2022-09-21T13:36:43.326Z,102251.41
2022-09-21T13:39:49.437Z,102250.19
2022-09-21T13:42:52.017Z,102255.09
2022-09-21T13:46:01.432Z,102249.69
2022-09-21T13:49:17.509Z,102253.69
2022-09-21T13:52:39.341Z,102251.25
2022-09-21T13:55:49.867Z,102249.78
2022-09-21T13:58:57.199Z,102250.09
2022-09-21T14:02:01.712Z,102248.09
2022-09-21T14:05:10.436Z,102237.09
2022-09-21T14:08:23.279Z,102233.38
2022-09-21T14:11:33.451Z,102229.94
2022-09-21T14:14:38.192Z,102230.19
2022-09-21T14:17:42.132Z,102225.50
2022-09-21T14:21:09.398Z,102236.09
2022-09-21T14:24:37.321Z,102221.59
2022-09-21T14:27:45.922Z,102220.09
2022-09-21T14:30:57.478Z,102221.25
2022-09-21T14:34:05.513Z,102222.69
2022-09-21T14:37:19.824Z,102217.31
2022-09-21T14:40:25.367Z,102213.03
2022-09-21T14:43:33.765Z,102211.31
2022-09-21T14:46:57.014Z,102210.16
2022-09-21T14:50:15.493Z,102201.75
2022-09-21T14:53:40.254Z,102202.66
2022-09-21T14:56:58.717Z,102199.88
2022-09-21T15:00:15.495Z,102207.84
2022-09-21T15:03:36.955Z,102196.56
2022-09-21T15:07:06.098Z,102200.41
2022-09-21T15:10:40.014Z,102201.28
2022-09-21T15:14:12.097Z,102195.22
2022-09-21T15:17:26.023Z,102198.25
2022-09-21T15:20:29.969Z,102201.03
2022-09-21T15:23:35.862Z,102197.78
2022-09-21T15:26:40.369Z,102198.75
2022-09-21T15:29:48.840Z,102190.41
2022-09-21T15:32:55.038Z,102192.66
2022-09-21T15:36:02.543Z,102184.81
2022-09-21T15:39:06.872Z,102192.88
2022-09-21T15:42:22.350Z,102190.66
2022-09-21T15:45:27.985Z,102185.31
2022-09-21T15:48:34.169Z,102185.06
2022-09-21T15:51:41.377Z,102183.06
2022-09-21T15:54:48.999Z,102185.31
2022-09-21T15:57:56.229Z,102185.06
2022-09-21T16:00:59.691Z,102185.69
2022-09-21T16:04:07.126Z,102180.50
2022-09-21T16:07:26.781Z,102190.84
2022-09-21T16:10:40.256Z,102185.13
2022-09-21T16:14:00.499Z,102191.81
2022-09-21T16:17:25.642Z,102184.41
2022-09-21T16:20:43.653Z,102174.53
2022-09-21T16:23:47.991Z,102183.53
2022-09-21T16:26:59.347Z,102181.25
2022-09-21T16:30:02.319Z,102179.72
2022-09-21T16:33:42.949Z,102174.88
2022-09-21T16:36:46.652Z,102174.88
2022-09-21T16:39:49.122Z,102185.75
2022-09-21T16:42:53.558Z,102181.50
2022-09-21T16:45:56.049Z,102197.22
2022-09-21T16:49:00.703Z,102186.06
2022-09-21T16:52:03.747Z,102195.59
2022-09-21T16:55:07.121Z,102186.97
2022-09-21T16:58:11.489Z,102190.91
2022-09-21T17:01:15.720Z,102189.13
2022-09-21T17:04:19.143Z,102190.94
2022-09-21T17:07:21.649Z,102196.63
2022-09-21T17:10:29.196Z,102191.16
2022-09-21T17:13:33.401Z,102189.75
2022-09-21T17:16:35.861Z,102194.06
2022-09-21T17:19:41.931Z,102187.66
2022-09-21T17:22:45.199Z,102195.00
2022-09-21T17:25:47.674Z,102192.97
2022-09-21T17:28:53.436Z,102191.94
2022-09-21T17:31:57.583Z,102195.84
2022-09-21T17:35:13.070Z,102197.03
2022-09-21T17:38:15.573Z,102195.75
2022-09-21T17:41:25.293Z,102200.31
2022-09-21T17:44:45.388Z,102201.94
2022-09-21T17:47:50.248Z,102200.03
2022-09-21T17:50:53.338Z,102195.22
2022-09-21T17:53:55.316Z,102199.50
2022-09-21T17:57:04.882Z,102198.03
2022-09-21T18:00:15.080Z,102208.00
2022-09-21T18:03:22.085Z,102197.47
2022-09-21T18:06:25.897Z,102190.19
2022-09-21T18:09:28.866Z,102200.50
2022-09-21T18:13:07.684Z,102198.03
2022-09-21T18:16:24.154Z,102204.41
2022-09-21T18:19:49.377Z,102212.25
2022-09-21T18:22:59.963Z,102205.25
2022-09-21T18:26:03.029Z,102211.00
2022-09-21T18:29:28.517Z,102205.53
2022-09-21T18:32:46.263Z,102207.06
2022-09-21T18:35:59.736Z,102205.25
2022-09-21T18:39:18.079Z,102211.66
2022-09-21T18:42:39.941Z,102207.47
2022-09-21T18:45:47.978Z,102217.78
2022-09-21T18:49:00.008Z,102214.09
2022-09-21T18:52:14.995Z,102215.63
2022-09-21T18:55:26.686Z,102214.88
2022-09-21T18:58:30.456Z,102217.66
2022-09-21T19:01:34.224Z,102220.56
2022-09-21T19:04:38.883Z,102208.13
2022-09-21T19:07:49.426Z,102213.25
2022-09-21T19:10:57.945Z,102212.63
2022-09-21T19:14:08.360Z,102215.06
2022-09-21T19:17:22.819Z,102209.91
2022-09-21T19:20:38.058Z,102207.66
2022-09-21T19:23:51.376Z,102217.66
2022-09-21T19:27:08.519Z,102208.69
2022-09-21T19:30:13.982Z,102212.44
2022-09-21T19:33:48.262Z,102212.25
2022-09-21T19:36:50.001Z,102215.75
2022-09-21T19:39:52.798Z,102214.28
2022-09-21T19:43:20.563Z,102222.56
2022-09-21T19:46:33.370Z,102226.91
2022-09-21T19:49:46.155Z,102221.03
2022-09-21T19:52:52.064Z,102227.88
2022-09-21T19:56:15.293Z,102227.59
2022-09-21T19:59:35.551Z,102226.72
2022-09-21T20:02:45.220Z,102226.41
2022-09-21T20:05:58.765Z,102226.28
2022-09-21T20:09:10.773Z,102226.22
2022-09-21T20:12:20.417Z,102229.91
2022-09-21T20:15:29.346Z,102229.75
2022-09-21T20:18:39.635Z,102226.22
2022-09-21T20:21:44.620Z,102229.59
2022-09-21T20:24:56.665Z,102236.47
2022-09-21T20:27:59.780Z,102229.06
2022-09-21T20:31:02.616Z,102238.31
2022-09-21T20:34:05.681Z,102236.72
2022-09-21T20:37:12.657Z,102226.22
2022-09-21T20:40:17.267Z,102230.78
2022-09-21T20:43:22.001Z,102236.13
2022-09-21T20:46:24.583Z,102232.53
2022-09-21T20:49:27.091Z,102239.78
2022-09-21T20:52:29.967Z,102245.31
2022-09-21T20:55:34.137Z,102233.41
2022-09-21T20:58:36.657Z,102238.50
2022-09-21T21:01:39.195Z,102229.75
2022-09-21T21:04:41.918Z,102230.34
2022-09-21T21:07:44.413Z,102234.91
2022-09-21T21:10:48.242Z,102231.50
2022-09-21T21:13:50.725Z,102228.31
2022-09-21T21:16:53.391Z,102224.25
2022-09-21T21:19:55.962Z,102227.50
2022-09-21T21:22:58.462Z,102233.34
2022-09-21T21:26:06.317Z,102232.94
2022-09-21T21:29:08.954Z,102234.88
2022-09-21T21:32:11.508Z,102236.13
2022-09-21T21:35:14.223Z,102240.22
2022-09-21T21:38:16.720Z,102228.97
2022-09-21T21:41:20.783Z,102240.38
2022-09-21T21:44:23.288Z,102234.22
2022-09-21T21:47:39.127Z,102226.56
2022-09-21T21:50:42.569Z,102231.94
2022-09-21T21:53:45.743Z,102231.88
2022-09-21T21:56:49.972Z,102238.16
2022-09-21T21:59:52.466Z,102231.94
2022-09-21T22:02:57.025Z,102233.16
2022-09-21T22:05:59.512Z,102231.38
2022-09-21T22:09:03.165Z,102232.06
2022-09-21T22:12:07.686Z,102225.41
2022-09-21T22:15:11.459Z,102230.72
2022-09-21T22:18:13.938Z,102232.25
2022-09-21T22:21:17.841Z,102235.16
2022-09-21T22:24:21.017Z,102232.59
2022-09-21T22:27:24.860Z,102229.56
2022-09-21T22:30:27.417Z,102228.44
2022-09-21T22:33:33.418Z,102223.28
2022-09-21T22:36:37.862Z,102225.69
2022-09-21T22:39:40.337Z,102223.78
2022-09-21T22:42:46.418Z,102225.59
2022-09-21T22:45:48.927Z,102230.78
2022-09-21T22:48:52.029Z,102222.75
2022-09-21T22:51:54.553Z,102233.56
2022-09-21T22:54:57.020Z,102226.28
2022-09-21T22:58:00.854Z,102227.31
2022-09-21T23:01:05.757Z,102231.72
2022-09-21T23:04:10.482Z,102229.84
2022-09-21T23:07:13.237Z,102228.97
2022-09-21T23:10:15.856Z,102225.06
2022-09-21T23:13:19.648Z,102226.19
2022-09-21T23:16:22.943Z,102221.16
2022-09-21T23:19:25.529Z,102218.81
2022-09-21T23:22:28.017Z,102214.94
2022-09-21T23:25:30.930Z,102213.91
2022-09-21T23:28:35.614Z,102210.63
2022-09-21T23:31:42.375Z,102212.47
2022-09-21T23:34:47.095Z,102208.72
2022-09-21T23:37:49.941Z,102209.97
2022-09-21T23:40:52.433Z,102201.47
2022-09-21T23:43:56.820Z,102197.94
2022-09-21T23:46:59.380Z,102208.56
2022-09-21T23:50:01.899Z,102207.03
2022-09-21T23:53:04.374Z,102206.91
2022-09-21T23:56:08.406Z,102195.16
2022-09-21T23:59:12.905Z,102192.50
